createdAt,value
2019-02-09T00:01:50.049Z,43.07
2019-02-09T00:04:19.910Z,39.33
2019-02-09T00:06:49.851Z,39.87
2019-02-09T00:09:19.702Z,40.63
2019-02-09T00:11:49.633Z,40.23
2019-02-09T00:14:19.527Z,42.77
2019-02-09T00:16:49.472Z,38.13
2019-02-09T00:19:19.391Z,38.70
2019-02-09T00:21:49.271Z,41.03
2019-02-09T00:24:19.247Z,40.43
2019-02-09T00:26:49.216Z,37.57
2019-02-09T00:29:19.143Z,39.53
2019-02-09T00:31:49.102Z,41.53
2019-02-09T00:34:19.050Z,37.53
2019-02-09T00:36:48.910Z,37.33
2019-02-09T00:39:18.878Z,37.83
2019-02-09T00:41:48.826Z,37.33
2019-02-09T00:44:18.856Z,38.57
2019-02-09T00:46:48.805Z,37.50
2019-02-09T00:49:18.770Z,37.77
2019-02-09T00:51:48.631Z,39.17
2019-02-09T00:54:18.562Z,36.87
2019-02-09T00:56:48.527Z,37.23
2019-02-09T00:59:18.467Z,38.03
2019-02-09T01:01:48.426Z,40.17
2019-02-09T01:04:19.275Z,37.00
2019-02-09T01:06:49.217Z,36.07
2019-02-09T01:09:19.144Z,38.73
2019-02-09T01:11:49.091Z,36.73
2019-02-09T01:14:19.051Z,39.50
2019-02-09T01:16:48.973Z,37.40
2019-02-09T01:19:18.937Z,38.10
2019-02-09T01:21:48.873Z,35.17
2019-02-09T01:24:18.826Z,40.67
2019-02-09T01:26:48.844Z,37.00
2019-02-09T01:29:18.771Z,35.10
2019-02-09T01:31:48.633Z,34.17
2019-02-09T01:34:18.514Z,36.67
2019-02-09T01:36:48.454Z,38.43
2019-02-09T01:39:18.427Z,34.23
2019-02-09T01:41:48.409Z,36.00
2019-02-09T01:44:18.343Z,37.00
2019-02-09T01:46:48.300Z,34.67
2019-02-09T01:49:18.165Z,33.47
2019-02-09T01:51:48.190Z,34.60
2019-02-09T01:54:18.156Z,34.17
2019-02-09T01:56:48.097Z,33.83
2019-02-09T01:59:18.045Z,33.30
2019-02-09T02:01:47.969Z,32.37
2019-02-09T02:04:17.905Z,34.30
2019-02-09T02:06:47.774Z,33.03
2019-02-09T02:09:17.703Z,31.17
2019-02-09T02:11:47.558Z,33.70
2019-02-09T02:14:17.516Z,31.83
2019-02-09T02:16:47.442Z,32.77
2019-02-09T02:19:17.306Z,32.37
2019-02-09T02:21:47.318Z,29.40
2019-02-09T02:24:17.253Z,32.90
2019-02-09T02:26:47.186Z,32.23
2019-02-09T02:29:17.129Z,32.37
2019-02-09T02:31:46.979Z,32.07
2019-02-09T02:34:16.844Z,30.10
2019-02-09T02:36:47.718Z,33.40
2019-02-09T02:39:17.574Z,30.63
2019-02-09T02:41:47.497Z,30.40
2019-02-09T02:44:17.503Z,31.47
2019-02-09T02:46:47.488Z,31.50
2019-02-09T02:49:17.367Z,31.17
2019-02-09T02:51:47.301Z,28.03
2019-02-09T02:54:17.231Z,32.60
2019-02-09T02:56:47.121Z,30.87
2019-02-09T02:59:17.074Z,28.90
2019-02-09T03:01:47.025Z,30.20
2019-02-09T03:04:16.983Z,32.13
2019-02-09T03:06:47.914Z,31.43
2019-02-09T03:09:17.921Z,33.87
2019-02-09T03:11:47.778Z,32.67
2019-02-09T03:14:17.717Z,30.57
2019-02-09T03:16:47.639Z,29.77
2019-02-09T03:19:19.171Z,29.77
2019-02-09T03:21:49.177Z,29.70
2019-02-09T03:24:19.078Z,32.33
2019-02-09T03:26:48.929Z,30.10
2019-02-09T03:29:18.796Z,30.43
2019-02-09T03:31:48.755Z,28.07
2019-02-09T03:34:18.678Z,29.57
2019-02-09T03:36:48.635Z,30.67
2019-02-09T03:39:18.583Z,29.17
2019-02-09T03:41:48.450Z,29.53
2019-02-09T03:44:18.376Z,28.50
2019-02-09T03:46:48.323Z,31.97
2019-02-09T03:49:18.204Z,27.43
2019-02-09T03:51:48.063Z,27.53
2019-02-09T03:54:18.067Z,28.07
2019-02-09T03:56:47.842Z,27.37
2019-02-09T03:59:17.766Z,28.53
2019-02-09T04:01:47.711Z,26.47
2019-02-09T04:04:17.674Z,27.27
2019-02-09T04:06:47.676Z,25.30
2019-02-09T04:09:17.680Z,28.03
2019-02-09T04:11:47.760Z,27.03
2019-02-09T04:14:17.748Z,27.23
2019-02-09T04:16:47.635Z,26.90
2019-02-09T04:19:17.411Z,27.77
2019-02-09T04:21:47.364Z,26.60
2019-02-09T04:24:17.352Z,28.13
2019-02-09T04:26:47.274Z,27.33
2019-02-09T04:29:17.200Z,30.07
2019-02-09T04:31:47.158Z,27.03
2019-02-09T04:34:17.007Z,27.73
2019-02-09T04:36:46.898Z,27.27
2019-02-09T04:39:16.748Z,23.63
2019-02-09T04:41:46.692Z,26.70
2019-02-09T04:44:16.617Z,25.30
2019-02-09T04:46:46.557Z,24.90
2019-02-09T04:49:16.366Z,26.37
2019-02-09T04:51:46.227Z,26.27
2019-02-09T04:54:16.102Z,25.07
2019-02-09T04:56:46.063Z,24.77
2019-02-09T04:59:15.986Z,27.97
2019-02-09T05:01:45.905Z,24.00
2019-02-09T05:04:15.842Z,24.70
2019-02-09T05:06:45.714Z,24.77
2019-02-09T05:09:15.563Z,24.40
2019-02-09T05:11:45.386Z,24.70
2019-02-09T05:14:15.358Z,24.20
2019-02-09T05:16:45.307Z,23.67
2019-02-09T05:19:15.238Z,24.43
2019-02-09T05:21:45.176Z,26.50
2019-02-09T05:24:15.101Z,27.80
2019-02-09T05:26:45.043Z,26.57
2019-02-09T05:29:15.049Z,24.20
2019-02-09T05:31:44.991Z,25.90
2019-02-09T05:34:14.853Z,27.23
2019-02-09T05:36:44.733Z,25.77
2019-02-09T05:39:14.605Z,24.23
2019-02-09T05:41:44.526Z,24.77
2019-02-09T05:44:14.387Z,23.97
2019-02-09T05:46:44.326Z,24.63
2019-02-09T05:49:14.261Z,23.43
2019-02-09T05:51:44.128Z,22.97
2019-02-09T05:54:14.058Z,25.97
2019-02-09T05:56:44.073Z,26.87
2019-02-09T05:59:13.986Z,23.90
2019-02-09T06:01:43.862Z,23.10
2019-02-09T06:04:14.001Z,23.20
2019-02-09T06:06:43.885Z,23.03
2019-02-09T06:09:13.835Z,23.47
2019-02-09T06:11:43.790Z,23.27
2019-02-09T06:14:13.646Z,24.03
2019-02-09T06:16:43.610Z,22.70
2019-02-09T06:19:13.474Z,24.17
2019-02-09T06:21:43.357Z,25.37
2019-02-09T06:24:13.224Z,23.33
2019-02-09T06:26:43.098Z,21.83
2019-02-09T06:29:13.036Z,22.23
2019-02-09T06:31:42.901Z,22.73
2019-02-09T06:34:12.831Z,22.77
2019-02-09T06:36:42.687Z,21.67
2019-02-09T06:39:12.690Z,22.60
2019-02-09T06:41:42.551Z,22.03
2019-02-09T06:44:12.522Z,24.73
2019-02-09T06:46:42.390Z,21.07
2019-02-09T06:49:12.397Z,24.07
2019-02-09T06:51:42.247Z,21.93
2019-02-09T06:54:12.110Z,22.10
2019-02-09T06:56:42.046Z,21.63
2019-02-09T06:59:11.992Z,22.07
2019-02-09T07:01:48.531Z,20.27
2019-02-09T07:04:14.369Z,22.13
2019-02-09T07:06:44.221Z,20.03
2019-02-09T07:09:14.173Z,22.13
2019-02-09T07:11:44.049Z,21.80
2019-02-09T07:14:13.909Z,19.23
2019-02-09T07:16:43.939Z,20.03
2019-02-09T07:19:13.907Z,21.37
2019-02-09T07:21:43.833Z,20.43
2019-02-09T07:24:13.788Z,21.03
2019-02-09T07:26:43.658Z,18.53
2019-02-09T07:29:13.625Z,21.07
2019-02-09T07:31:43.618Z,18.57
2019-02-09T07:34:13.577Z,19.13
2019-02-09T07:36:43.426Z,19.40
2019-02-09T07:39:13.403Z,19.13
2019-02-09T07:41:43.330Z,22.13
2019-02-09T07:44:13.335Z,19.30
2019-02-09T07:46:43.296Z,19.67
2019-02-09T07:49:13.235Z,18.80
2019-02-09T07:51:43.187Z,18.97
2019-02-09T07:54:13.106Z,19.20
2019-02-09T07:56:44.293Z,20.47
2019-02-09T07:59:15.564Z,19.13
2019-02-09T08:01:46.751Z,18.63
2019-02-09T08:04:16.941Z,20.93
2019-02-09T08:06:46.925Z,18.07
2019-02-09T08:09:16.790Z,20.43
2019-02-09T08:11:46.662Z,19.07
2019-02-09T08:14:16.682Z,18.00
2019-02-09T08:16:46.539Z,19.97
2019-02-09T08:19:16.478Z,18.63
2019-02-09T08:21:46.330Z,18.67
2019-02-09T08:24:16.262Z,18.37
2019-02-09T08:26:46.119Z,18.63
2019-02-09T08:29:15.991Z,20.60
2019-02-09T08:31:45.994Z,19.57
2019-02-09T08:34:15.867Z,18.57
2019-02-09T08:36:45.855Z,19.20
2019-02-09T08:39:15.720Z,17.87
2019-02-09T08:41:45.661Z,19.27
2019-02-09T08:44:15.683Z,19.60
2019-02-09T08:46:45.621Z,20.83
2019-02-09T08:49:15.477Z,24.70
2019-02-09T08:51:45.409Z,22.57
2019-02-09T08:54:15.274Z,21.03
2019-02-09T08:56:45.237Z,18.30
2019-02-09T08:59:15.097Z,50.27
2019-02-09T09:01:45.043Z,56.37
2019-02-09T09:04:14.970Z,46.33
2019-02-09T09:06:44.908Z,49.90
2019-02-09T09:09:14.878Z,44.27
2019-02-09T09:11:44.730Z,37.93
2019-02-09T09:14:14.668Z,40.53
2019-02-09T09:16:44.456Z,38.57
2019-02-09T09:19:14.399Z,38.97
2019-02-09T09:21:44.250Z,38.87
2019-02-09T09:24:14.141Z,40.33
2019-02-09T09:26:44.097Z,40.23
2019-02-09T09:29:13.981Z,36.30
2019-02-09T09:31:44.040Z,39.73
2019-02-09T09:34:13.973Z,32.10
2019-02-09T09:36:43.989Z,35.97
2019-02-09T09:39:13.920Z,30.80
2019-02-09T09:41:43.948Z,35.90
2019-02-09T09:44:13.949Z,33.87
2019-02-09T09:46:43.929Z,28.77
2019-02-09T09:49:14.037Z,26.67
2019-02-09T09:51:44.024Z,33.57
2019-02-09T09:54:14.004Z,27.77
2019-02-09T09:56:43.949Z,30.73
2019-02-09T09:59:13.882Z,31.47
2019-02-09T10:01:43.749Z,27.50
2019-02-09T10:04:13.763Z,32.50
2019-02-09T10:06:43.712Z,27.87
2019-02-09T10:09:13.674Z,28.47
2019-02-09T10:11:43.605Z,33.03
2019-02-09T10:14:13.523Z,31.37
2019-02-09T10:16:43.450Z,31.50
2019-02-09T10:19:13.394Z,36.53
2019-02-09T10:21:43.326Z,33.47
2019-02-09T10:24:13.249Z,38.63
2019-02-09T10:26:43.205Z,33.43
2019-02-09T10:29:13.073Z,33.00
2019-02-09T10:31:43.035Z,37.80
2019-02-09T10:34:12.964Z,34.77
2019-02-09T10:36:42.858Z,32.67
2019-02-09T10:39:12.722Z,30.50
2019-02-09T10:41:42.691Z,29.67
2019-02-09T10:44:12.684Z,32.07
2019-02-09T10:46:43.919Z,29.87
2019-02-09T10:49:13.998Z,30.57
2019-02-09T10:51:44.109Z,28.50
2019-02-09T10:54:14.005Z,29.20
2019-02-09T10:56:44.445Z,30.27
2019-02-09T10:59:15.346Z,35.27
2019-02-09T11:01:45.293Z,38.90
2019-02-09T11:04:15.279Z,29.50
2019-02-09T11:06:45.139Z,34.67
2019-02-09T11:09:19.570Z,31.67
2019-02-09T11:11:49.532Z,39.43
2019-02-09T11:14:19.466Z,30.43
2019-02-09T11:16:49.366Z,36.03
2019-02-09T11:19:19.331Z,34.83
2019-02-09T11:21:49.838Z,35.27
2019-02-09T11:24:20.875Z,34.03
2019-02-09T11:26:50.765Z,29.37
2019-02-09T11:29:20.745Z,33.93
2019-02-09T11:31:50.645Z,29.83
2019-02-09T11:34:20.512Z,37.07
2019-02-09T11:36:50.475Z,31.00
2019-02-09T11:39:20.508Z,29.43
2019-02-09T11:41:50.434Z,29.33
2019-02-09T11:44:20.369Z,35.27
2019-02-09T11:46:50.365Z,27.93
2019-02-09T11:49:20.301Z,37.33
2019-02-09T11:51:50.325Z,31.00
2019-02-09T11:54:20.369Z,31.47
2019-02-09T11:56:50.332Z,23.90
2019-02-09T11:59:21.369Z,29.50
2019-02-09T12:01:51.972Z,29.50
2019-02-09T12:04:22.001Z,31.30
2019-02-09T12:06:51.959Z,31.20
2019-02-09T12:09:22.963Z,26.63
2019-02-09T12:11:52.893Z,27.37
2019-02-09T12:14:22.754Z,28.27
2019-02-09T12:16:52.609Z,26.07
2019-02-09T12:19:22.548Z,32.90
2019-02-09T12:21:53.482Z,29.00
2019-02-09T12:24:23.445Z,30.00
2019-02-09T12:26:53.310Z,26.43
2019-02-09T12:29:23.261Z,27.93
2019-02-09T12:31:53.222Z,24.93
2019-02-09T12:34:23.103Z,29.03
2019-02-09T12:36:53.234Z,96.47
2019-02-09T12:39:23.192Z,168.87
2019-02-09T12:41:53.106Z,319.03
2019-02-09T12:44:23.005Z,476.17
2019-02-09T12:46:52.897Z,514.57
2019-02-09T12:49:22.887Z,577.77
2019-02-09T12:51:52.838Z,590.23
2019-02-09T12:54:22.753Z,576.23
2019-02-09T12:56:53.671Z,577.27
2019-02-09T12:59:23.590Z,541.30
2019-02-09T13:01:53.506Z,542.67
2019-02-09T13:04:23.484Z,531.03
2019-02-09T13:06:54.414Z,513.43
2019-02-09T13:09:24.302Z,498.13
2019-02-09T13:11:54.275Z,486.73
2019-02-09T13:14:24.215Z,457.27
2019-02-09T13:16:54.225Z,457.40
2019-02-09T13:19:24.092Z,477.47
2019-02-09T13:21:54.041Z,434.17
2019-02-09T13:24:23.945Z,445.17
2019-02-09T13:26:53.886Z,431.53
2019-02-09T13:29:23.869Z,427.37
2019-02-09T13:31:53.810Z,412.13
2019-02-09T13:34:23.684Z,395.50
2019-02-09T13:36:53.577Z,376.47
2019-02-09T13:39:23.559Z,359.53
2019-02-09T13:41:53.600Z,360.10
2019-02-09T13:44:23.566Z,326.40
2019-02-09T13:46:53.454Z,324.80
2019-02-09T13:49:23.421Z,311.83
2019-02-09T13:51:53.430Z,311.97
2019-02-09T13:54:23.523Z,279.70
2019-02-09T13:56:53.470Z,286.67
2019-02-09T13:59:23.421Z,281.03
2019-02-09T14:01:53.336Z,269.33
2019-02-09T14:04:23.278Z,263.23
2019-02-09T14:06:53.245Z,241.93
2019-02-09T14:09:23.138Z,238.30
2019-02-09T14:11:53.416Z,218.53
2019-02-09T14:14:23.646Z,221.00
2019-02-09T14:16:53.749Z,241.43
2019-02-09T14:19:23.690Z,217.67
2019-02-09T14:21:53.643Z,204.77
2019-02-09T14:24:23.625Z,207.83
2019-02-09T14:26:53.634Z,194.63
2019-02-09T14:29:23.486Z,190.13
2019-02-09T14:31:53.432Z,190.00
2019-02-09T14:34:23.395Z,181.77
2019-02-09T14:36:53.382Z,183.57
2019-02-09T14:39:23.281Z,164.27
2019-02-09T14:41:53.158Z,166.60
2019-02-09T14:44:24.369Z,163.50
2019-02-09T14:46:55.367Z,155.33
2019-02-09T14:49:25.397Z,157.53
2019-02-09T14:51:55.338Z,148.67
2019-02-09T14:54:25.206Z,158.63
2019-02-09T14:56:56.102Z,158.87
2019-02-09T14:59:26.062Z,148.67
2019-02-09T15:01:56.019Z,134.43
2019-02-09T15:04:25.969Z,146.50
2019-02-09T15:06:55.934Z,144.93
2019-02-09T15:09:25.869Z,134.13
2019-02-09T15:11:55.885Z,138.73
2019-02-09T15:14:25.788Z,130.23
2019-02-09T15:16:56.622Z,125.77
2019-02-09T15:19:33.240Z,125.30
2019-02-09T15:22:03.297Z,127.93
2019-02-09T15:24:33.336Z,132.70
2019-02-09T15:27:03.342Z,285.17
2019-02-09T15:29:33.272Z,510.03
2019-02-09T15:32:03.233Z,761.53
2019-02-09T15:34:33.158Z,735.17
2019-02-09T15:37:03.162Z,822.50
2019-02-09T15:39:33.241Z,816.37
2019-02-09T15:42:03.221Z,780.83
2019-02-09T15:44:33.121Z,752.87
2019-02-09T15:47:03.013Z,726.07
2019-02-09T15:49:32.914Z,684.53
2019-02-09T15:52:02.981Z,645.47
2019-02-09T15:54:32.898Z,635.93
2019-02-09T15:57:02.855Z,596.10
2019-02-09T15:59:32.822Z,602.53
2019-02-09T16:02:02.759Z,582.80
2019-02-09T16:04:32.758Z,559.33
2019-02-09T16:07:02.981Z,559.70
2019-02-09T16:09:32.905Z,537.87
2019-02-09T16:12:02.846Z,529.57
2019-02-09T16:14:32.895Z,509.97
2019-02-09T16:17:02.749Z,487.70
2019-02-09T16:19:32.763Z,479.60
2019-02-09T16:22:02.872Z,464.77
2019-02-09T16:24:32.898Z,455.57
2019-02-09T16:27:02.929Z,443.50
2019-02-09T16:29:32.944Z,440.57
2019-02-09T16:32:02.894Z,401.60
2019-02-09T16:34:32.958Z,387.10
2019-02-09T16:37:02.951Z,382.33
2019-02-09T16:39:35.799Z,349.07
2019-02-09T16:42:38.299Z,363.87
2019-02-09T16:45:11.064Z,491.20
2019-02-09T16:47:41.132Z,429.80
2019-02-09T16:50:11.092Z,407.80
2019-02-09T16:52:41.073Z,395.00
2019-02-09T16:55:11.611Z,399.23
2019-02-09T16:57:41.741Z,365.30
2019-02-09T17:00:15.150Z,357.10
2019-02-09T17:02:45.334Z,373.97
2019-02-09T17:05:15.296Z,319.17
2019-02-09T17:07:45.270Z,326.47
2019-02-09T17:10:15.440Z,335.97
2019-02-09T17:12:45.411Z,331.93
2019-02-09T17:15:17.953Z,307.43
2019-02-09T17:17:47.956Z,295.83
2019-02-09T17:20:17.952Z,296.93
2019-02-09T17:22:47.901Z,271.33
2019-02-09T17:25:18.068Z,279.20
2019-02-09T17:27:47.981Z,271.03
2019-02-09T17:30:23.352Z,259.37
2019-02-09T17:32:53.349Z,260.57
2019-02-09T17:35:23.422Z,227.60
2019-02-09T17:37:53.501Z,253.67
2019-02-09T17:40:28.612Z,238.03
2019-02-09T17:42:58.558Z,226.77
2019-02-09T17:45:31.195Z,220.57
2019-02-09T17:48:01.140Z,222.93
2019-02-09T17:50:31.143Z,195.30
2019-02-09T17:53:01.151Z,207.80
2019-02-09T17:55:32.762Z,196.43
2019-02-09T17:58:02.875Z,191.60
2019-02-09T18:00:45.118Z,195.33
2019-02-09T18:03:15.105Z,192.40
2019-02-09T18:05:45.109Z,182.27
2019-02-09T18:08:15.001Z,175.47
2019-02-09T18:10:44.957Z,161.13
2019-02-09T18:13:14.931Z,171.93
2019-02-09T18:15:44.892Z,156.70
2019-02-09T18:18:14.955Z,165.23
2019-02-09T18:20:44.993Z,154.47
2019-02-09T18:23:14.974Z,165.07
2019-02-09T18:25:44.826Z,146.60
2019-02-09T18:28:14.711Z,151.90
2019-02-09T18:30:58.350Z,149.73
2019-02-09T18:33:28.334Z,140.73
2019-02-09T18:35:58.277Z,137.20
2019-02-09T18:38:28.235Z,140.13
2019-02-09T18:40:58.243Z,132.30
2019-02-09T18:43:28.123Z,135.47
2019-02-09T18:45:58.081Z,131.27
2019-02-09T18:48:28.143Z,124.17
2019-02-09T18:50:58.152Z,130.93
2019-02-09T18:53:28.998Z,122.90
2019-02-09T18:55:58.981Z,126.83
2019-02-09T18:58:29.994Z,121.67
2019-02-09T19:00:59.963Z,125.43
2019-02-09T19:03:29.817Z,119.43
2019-02-09T19:05:59.809Z,121.20
2019-02-09T19:08:29.778Z,114.47
2019-02-09T19:10:59.647Z,107.63
2019-02-09T19:13:29.754Z,111.40
2019-02-09T19:15:59.637Z,111.07
2019-02-09T19:18:29.654Z,100.43
2019-02-09T19:21:00.870Z,99.33
2019-02-09T19:23:30.943Z,106.13
2019-02-09T19:26:00.996Z,95.83
2019-02-09T19:28:31.037Z,101.63
2019-02-09T19:31:00.985Z,100.97
2019-02-09T19:33:30.924Z,97.07
2019-02-09T19:36:01.227Z,94.00
2019-02-09T19:38:31.298Z,88.00
2019-02-09T19:41:01.308Z,92.17
2019-02-09T19:43:31.191Z,88.60
2019-02-09T19:46:01.142Z,94.93
2019-02-09T19:48:31.106Z,90.80
2019-02-09T19:51:01.053Z,85.50
2019-02-09T19:53:30.971Z,83.30
2019-02-09T19:56:00.981Z,86.07
2019-02-09T19:58:30.981Z,76.43
2019-02-09T20:01:00.922Z,78.27
2019-02-09T20:03:31.954Z,78.73
2019-02-09T20:06:01.933Z,81.10
2019-02-09T20:08:32.943Z,75.53
2019-02-09T20:11:02.956Z,81.17
2019-02-09T20:13:32.869Z,70.47
2019-02-09T20:16:03.826Z,67.03
2019-02-09T20:18:33.729Z,70.73
2019-02-09T20:21:03.687Z,70.87
2019-02-09T20:23:33.571Z,64.07
2019-02-09T20:26:03.534Z,70.20
2019-02-09T20:28:33.469Z,72.57
2019-02-09T20:31:05.525Z,66.90
2019-02-09T20:33:35.550Z,73.83
2019-02-09T20:36:05.574Z,68.47
2019-02-09T20:38:35.523Z,62.40
2019-02-09T20:41:07.161Z,66.73
2019-02-09T20:43:37.162Z,67.13
2019-02-09T20:46:07.194Z,64.70
2019-02-09T20:48:37.188Z,59.30
2019-02-09T20:51:07.163Z,61.17
2019-02-09T20:53:37.293Z,60.43
2019-02-09T20:56:07.266Z,60.20
2019-02-09T20:58:37.277Z,58.07
2019-02-09T21:01:07.291Z,59.17
2019-02-09T21:03:37.299Z,59.07
2019-02-09T21:06:07.216Z,56.23
2019-02-09T21:08:37.161Z,52.27
2019-02-09T21:11:07.198Z,53.90
2019-02-09T21:13:37.198Z,63.17
2019-02-09T21:16:07.038Z,52.43
2019-02-09T21:18:36.954Z,45.83
2019-02-09T21:21:06.911Z,52.63
2019-02-09T21:23:36.952Z,51.70
2019-02-09T21:26:07.003Z,54.17
2019-02-09T21:28:36.898Z,46.57
2019-02-09T21:31:06.843Z,54.03
2019-02-09T21:33:36.839Z,43.97
2019-02-09T21:36:06.878Z,47.57
2019-02-09T21:38:36.849Z,54.87
2019-02-09T21:41:06.796Z,44.80
2019-02-09T21:43:36.779Z,53.13
2019-02-09T21:46:06.723Z,43.37
2019-02-09T21:48:36.611Z,40.27
2019-02-09T21:51:06.585Z,45.23
2019-02-09T21:53:36.514Z,44.50
2019-02-09T21:56:06.382Z,42.93
2019-02-09T21:58:36.273Z,39.23
2019-02-09T22:01:06.180Z,43.77
2019-02-09T22:03:36.145Z,40.27
2019-02-09T22:06:06.054Z,38.80
2019-02-09T22:08:36.015Z,40.37
2019-02-09T22:11:06.149Z,36.63
2019-02-09T22:13:36.096Z,40.93
2019-02-09T22:16:06.152Z,41.17
2019-02-09T22:18:36.191Z,42.97
2019-02-09T22:21:06.106Z,37.83
2019-02-09T22:23:36.113Z,38.40
2019-02-09T22:26:12.985Z,37.20
2019-02-09T22:28:37.898Z,36.37
2019-02-09T22:31:07.927Z,35.97
2019-02-09T22:33:38.056Z,36.60
2019-02-09T22:36:07.917Z,33.53
2019-02-09T22:38:37.797Z,34.57
2019-02-09T22:41:07.743Z,35.17
2019-02-09T22:43:37.817Z,34.53
2019-02-09T22:46:07.756Z,36.23
2019-02-09T22:48:37.641Z,33.50
2019-02-09T22:51:07.590Z,31.00
2019-02-09T22:53:37.586Z,30.97
2019-02-09T22:56:07.608Z,32.33
2019-02-09T22:58:37.635Z,33.00
2019-02-09T23:01:48.689Z,31.17
2019-02-09T23:04:43.567Z,31.67
2019-02-09T23:07:22.258Z,29.47
2019-02-09T23:09:52.277Z,29.07
2019-02-09T23:12:22.145Z,30.07
2019-02-09T23:14:52.103Z,31.07
2019-02-09T23:17:22.079Z,29.80
2019-02-09T23:19:52.138Z,28.37
2019-02-09T23:22:22.138Z,27.40
2019-02-09T23:24:52.093Z,26.43
2019-02-09T23:27:21.994Z,26.77
2019-02-09T23:29:51.880Z,27.23
2019-02-09T23:32:21.876Z,28.07
2019-02-09T23:34:51.738Z,26.90
2019-02-09T23:37:21.662Z,27.43
2019-02-09T23:39:51.598Z,28.33
2019-02-09T23:42:22.446Z,25.43
2019-02-09T23:44:52.377Z,28.20
2019-02-09T23:47:22.373Z,26.57
2019-02-09T23:49:54.448Z,25.87
2019-02-09T23:52:24.345Z,24.60
2019-02-09T23:54:54.299Z,28.10
2019-02-09T23:57:24.248Z,25.47
2019-02-09T23:59:54.218Z,24.17
